sensor_id;sensor_type;location;lat;lon;timestamp;P1;durP1;ratioP1;P2;durP2;ratioP2
43606;SDS011;29197;44.788;10.366;2022-11-15T00:02:08;40.20;;;20.87;;
43606;SDS011;29197;44.788;10.366;2022-11-15T00:04:57;38.73;;;20.87;;
43606;SDS011;29197;44.788;10.366;2022-11-15T00:07:46;35.93;;;20.07;;
43606;SDS011;29197;44.788;10.366;2022-11-15T00:10:43;37.97;;;19.83;;
43606;SDS011;29197;44.788;10.366;2022-11-15T00:13:43;36.23;;;19.93;;
43606;SDS011;29197;44.788;10.366;2022-11-15T00:16:32;40.17;;;20.40;;
43606;SDS011;29197;44.788;10.366;2022-11-15T00:19:21;32.83;;;17.53;;
43606;SDS011;29197;44.788;10.366;2022-11-15T00:22:10;33.83;;;18.87;;
43606;SDS011;29197;44.788;10.366;2022-11-15T00:25:00;36.97;;;18.40;;
43606;SDS011;29197;44.788;10.366;2022-11-15T00:27:51;33.77;;;17.00;;
43606;SDS011;29197;44.788;10.366;2022-11-15T00:30:43;35.37;;;17.93;;
43606;SDS011;29197;44.788;10.366;2022-11-15T00:33:33;29.60;;;16.70;;
43606;SDS011;29197;44.788;10.366;2022-11-15T00:36:24;33.57;;;18.57;;
43606;SDS011;29197;44.788;10.366;2022-11-15T00:39:13;29.67;;;16.20;;
43606;SDS011;29197;44.788;10.366;2022-11-15T00:42:03;29.83;;;16.50;;
43606;SDS011;29197;44.788;10.366;2022-11-15T00:44:53;31.57;;;16.50;;
43606;SDS011;29197;44.788;10.366;2022-11-15T00:47:43;33.93;;;17.93;;
43606;SDS011;29197;44.788;10.366;2022-11-15T00:50:33;33.90;;;15.80;;
43606;SDS011;29197;44.788;10.366;2022-11-15T00:53:22;34.30;;;17.90;;
43606;SDS011;29197;44.788;10.366;2022-11-15T00:56:11;29.00;;;15.57;;
43606;SDS011;29197;44.788;10.366;2022-11-15T00:59:00;31.43;;;16.20;;
43606;SDS011;29197;44.788;10.366;2022-11-15T01:01:50;31.03;;;16.30;;
43606;SDS011;29197;44.788;10.366;2022-11-15T01:04:40;30.73;;;16.30;;
43606;SDS011;29197;44.788;10.366;2022-11-15T01:07:29;31.07;;;16.63;;
43606;SDS011;29197;44.788;10.366;2022-11-15T01:10:19;30.60;;;16.87;;
43606;SDS011;29197;44.788;10.366;2022-11-15T01:13:08;32.87;;;17.93;;
43606;SDS011;29197;44.788;10.366;2022-11-15T01:15:57;30.33;;;16.50;;
43606;SDS011;29197;44.788;10.366;2022-11-15T01:18:48;34.23;;;16.67;;
43606;SDS011;29197;44.788;10.366;2022-11-15T01:21:38;32.73;;;16.57;;
43606;SDS011;29197;44.788;10.366;2022-11-15T01:24:28;32.20;;;16.07;;
43606;SDS011;29197;44.788;10.366;2022-11-15T01:27:17;30.13;;;16.40;;
43606;SDS011;29197;44.788;10.366;2022-11-15T01:30:07;32.13;;;17.20;;
43606;SDS011;29197;44.788;10.366;2022-11-15T01:32:57;32.93;;;15.93;;
43606;SDS011;29197;44.788;10.366;2022-11-15T01:35:48;33.43;;;15.97;;
43606;SDS011;29197;44.788;10.366;2022-11-15T01:38:37;31.57;;;16.43;;
43606;SDS011;29197;44.788;10.366;2022-11-15T01:41:27;33.00;;;16.97;;
43606;SDS011;29197;44.788;10.366;2022-11-15T01:44:38;31.73;;;16.33;;
43606;SDS011;29197;44.788;10.366;2022-11-15T01:47:30;29.40;;;15.87;;
43606;SDS011;29197;44.788;10.366;2022-11-15T01:50:24;28.10;;;15.43;;
43606;SDS011;29197;44.788;10.366;2022-11-15T01:53:17;30.67;;;16.80;;
43606;SDS011;29197;44.788;10.366;2022-11-15T07:52:55;27.97;;;14.00;;
43606;SDS011;29197;44.788;10.366;2022-11-15T07:55:45;25.23;;;13.83;;
43606;SDS011;29197;44.788;10.366;2022-11-15T07:58:34;26.93;;;13.57;;
43606;SDS011;29197;44.788;10.366;2022-11-15T08:01:22;27.63;;;13.83;;
43606;SDS011;29197;44.788;10.366;2022-11-15T08:04:11;25.33;;;14.23;;
43606;SDS011;29197;44.788;10.366;2022-11-15T08:07:00;25.20;;;13.50;;
43606;SDS011;29197;44.788;10.366;2022-11-15T08:09:50;28.13;;;14.27;;
43606;SDS011;29197;44.788;10.366;2022-11-15T08:12:41;24.47;;;13.63;;
43606;SDS011;29197;44.788;10.366;2022-11-15T08:15:31;26.30;;;14.03;;
43606;SDS011;29197;44.788;10.366;2022-11-15T08:18:20;28.67;;;14.60;;
43606;SDS011;29197;44.788;10.366;2022-11-15T08:21:10;26.13;;;14.20;;
43606;SDS011;29197;44.788;10.366;2022-11-15T08:24:04;29.87;;;15.23;;
43606;SDS011;29197;44.788;10.366;2022-11-15T08:26:56;25.37;;;14.03;;
43606;SDS011;29197;44.788;10.366;2022-11-15T08:29:45;26.10;;;14.50;;
43606;SDS011;29197;44.788;10.366;2022-11-15T08:32:37;27.03;;;15.30;;
43606;SDS011;29197;44.788;10.366;2022-11-15T08:35:26;25.80;;;14.60;;
43606;SDS011;29197;44.788;10.366;2022-11-15T08:38:16;28.63;;;14.13;;
43606;SDS011;29197;44.788;10.366;2022-11-15T08:41:05;23.97;;;13.70;;
43606;SDS011;29197;44.788;10.366;2022-11-15T08:43:56;27.03;;;14.80;;
43606;SDS011;29197;44.788;10.366;2022-11-15T08:46:45;25.97;;;14.80;;
43606;SDS011;29197;44.788;10.366;2022-11-15T08:49:35;31.10;;;15.30;;
43606;SDS011;29197;44.788;10.366;2022-11-15T08:52:24;30.13;;;15.47;;
43606;SDS011;29197;44.788;10.366;2022-11-15T08:55:13;32.37;;;17.30;;
43606;SDS011;29197;44.788;10.366;2022-11-15T08:58:03;26.83;;;16.03;;
43606;SDS011;29197;44.788;10.366;2022-11-15T09:00:54;26.83;;;15.30;;
43606;SDS011;29197;44.788;10.366;2022-11-15T09:03:43;31.93;;;16.90;;
43606;SDS011;29197;44.788;10.366;2022-11-15T09:06:32;32.67;;;18.63;;
43606;SDS011;29197;44.788;10.366;2022-11-15T09:09:24;32.77;;;18.10;;
43606;SDS011;29197;44.788;10.366;2022-11-15T09:12:14;33.43;;;17.33;;
43606;SDS011;29197;44.788;10.366;2022-11-15T09:15:04;31.73;;;17.53;;
43606;SDS011;29197;44.788;10.366;2022-11-15T09:17:55;31.37;;;18.63;;
43606;SDS011;29197;44.788;10.366;2022-11-15T09:20:46;36.20;;;19.70;;
43606;SDS011;29197;44.788;10.366;2022-11-15T09:23:35;30.10;;;16.70;;
43606;SDS011;29197;44.788;10.366;2022-11-15T09:26:25;30.10;;;17.23;;
43606;SDS011;29197;44.788;10.366;2022-11-15T09:29:14;36.27;;;18.53;;
43606;SDS011;29197;44.788;10.366;2022-11-15T09:32:03;35.20;;;17.87;;
43606;SDS011;29197;44.788;10.366;2022-11-15T09:34:54;37.87;;;19.67;;
43606;SDS011;29197;44.788;10.366;2022-11-15T09:37:43;38.83;;;19.40;;
43606;SDS011;29197;44.788;10.366;2022-11-15T09:40:37;38.10;;;21.67;;
43606;SDS011;29197;44.788;10.366;2022-11-15T09:43:29;57.77;;;32.70;;
43606;SDS011;29197;44.788;10.366;2022-11-15T09:46:26;52.33;;;29.73;;
43606;SDS011;29197;44.788;10.366;2022-11-15T09:49:25;43.73;;;23.70;;
43606;SDS011;29197;44.788;10.366;2022-11-15T09:52:18;36.97;;;21.07;;
43606;SDS011;29197;44.788;10.366;2022-11-15T09:55:09;44.47;;;22.87;;
43606;SDS011;29197;44.788;10.366;2022-11-15T09:58:10;50.73;;;26.27;;
43606;SDS011;29197;44.788;10.366;2022-11-15T10:01:11;46.73;;;25.77;;
43606;SDS011;29197;44.788;10.366;2022-11-15T10:04:06;41.47;;;21.27;;
43606;SDS011;29197;44.788;10.366;2022-11-15T10:07:00;47.03;;;21.63;;
43606;SDS011;29197;44.788;10.366;2022-11-15T10:10:01;36.20;;;20.60;;
43606;SDS011;29197;44.788;10.366;2022-11-15T10:12:57;33.93;;;19.03;;
43606;SDS011;29197;44.788;10.366;2022-11-15T10:15:46;36.63;;;20.67;;
43606;SDS011;29197;44.788;10.366;2022-11-15T10:18:40;40.60;;;21.80;;
43606;SDS011;29197;44.788;10.366;2022-11-15T10:21:39;43.83;;;21.43;;
43606;SDS011;29197;44.788;10.366;2022-11-15T10:24:37;38.20;;;19.50;;
43606;SDS011;29197;44.788;10.366;2022-11-15T10:27:31;41.87;;;22.17;;
43606;SDS011;29197;44.788;10.366;2022-11-15T10:30:21;40.23;;;23.70;;
43606;SDS011;29197;44.788;10.366;2022-11-15T10:33:17;37.80;;;21.08;;
43606;SDS011;29197;44.788;10.366;2022-11-15T10:36:16;39.30;;;20.27;;
43606;SDS011;29197;44.788;10.366;2022-11-15T10:39:10;35.83;;;20.40;;
43606;SDS011;29197;44.788;10.366;2022-11-15T10:42:14;38.78;;;19.67;;
43606;SDS011;29197;44.788;10.366;2022-11-15T10:45:09;39.10;;;21.67;;
43606;SDS011;29197;44.788;10.366;2022-11-15T10:48:21;40.90;;;20.63;;
43606;SDS011;29197;44.788;10.366;2022-11-15T10:51:18;37.73;;;21.03;;
43606;SDS011;29197;44.788;10.366;2022-11-15T10:54:12;38.57;;;21.67;;
43606;SDS011;29197;44.788;10.366;2022-11-15T10:57:12;37.70;;;20.70;;
43606;SDS011;29197;44.788;10.366;2022-11-15T11:00:05;38.15;;;21.67;;
43606;SDS011;29197;44.788;10.366;2022-11-15T11:06:22;43.03;;;23.10;;
43606;SDS011;29197;44.788;10.366;2022-11-15T11:09:22;46.43;;;24.67;;
43606;SDS011;29197;44.788;10.366;2022-11-15T11:12:16;47.53;;;26.35;;
43606;SDS011;29197;44.788;10.366;2022-11-15T11:15:17;46.03;;;24.03;;
43606;SDS011;29197;44.788;10.366;2022-11-15T11:18:07;44.70;;;23.57;;
43606;SDS011;29197;44.788;10.366;2022-11-15T11:21:07;57.97;;;29.40;;
43606;SDS011;29197;44.788;10.366;2022-11-15T11:24:02;48.33;;;26.10;;
43606;SDS011;29197;44.788;10.366;2022-11-15T11:27:03;44.13;;;24.83;;
43606;SDS011;29197;44.788;10.366;2022-11-15T11:30:03;44.53;;;22.87;;
43606;SDS011;29197;44.788;10.366;2022-11-15T11:33:09;44.53;;;24.50;;
43606;SDS011;29197;44.788;10.366;2022-11-15T11:36:10;47.07;;;24.67;;
43606;SDS011;29197;44.788;10.366;2022-11-15T11:39:14;37.67;;;21.67;;
43606;SDS011;29197;44.788;10.366;2022-11-15T11:42:14;43.53;;;22.93;;
43606;SDS011;29197;44.788;10.366;2022-11-15T11:45:14;44.42;;;24.45;;
43606;SDS011;29197;44.788;10.366;2022-11-15T11:48:09;44.77;;;23.87;;
43606;SDS011;29197;44.788;10.366;2022-11-15T11:51:02;46.63;;;23.63;;
43606;SDS011;29197;44.788;10.366;2022-11-15T11:53:57;45.47;;;23.60;;
43606;SDS011;29197;44.788;10.366;2022-11-15T11:56:49;44.60;;;23.73;;
43606;SDS011;29197;44.788;10.366;2022-11-15T11:59:41;42.13;;;22.98;;
43606;SDS011;29197;44.788;10.366;2022-11-15T12:02:36;45.50;;;24.33;;
43606;SDS011;29197;44.788;10.366;2022-11-15T12:05:30;46.67;;;24.20;;
43606;SDS011;29197;44.788;10.366;2022-11-15T12:08:30;43.55;;;23.52;;
43606;SDS011;29197;44.788;10.366;2022-11-15T12:11:27;53.67;;;27.10;;
43606;SDS011;29197;44.788;10.366;2022-11-15T12:14:23;45.80;;;25.03;;
43606;SDS011;29197;44.788;10.366;2022-11-15T12:17:19;42.23;;;22.73;;
43606;SDS011;29197;44.788;10.366;2022-11-15T12:20:15;49.58;;;23.42;;
43606;SDS011;29197;44.788;10.366;2022-11-15T12:23:08;42.50;;;23.20;;
43606;SDS011;29197;44.788;10.366;2022-11-15T12:26:02;39.70;;;22.10;;
43606;SDS011;29197;44.788;10.366;2022-11-15T12:28:58;41.83;;;22.83;;
43606;SDS011;29197;44.788;10.366;2022-11-15T12:31:54;41.83;;;22.23;;
43606;SDS011;29197;44.788;10.366;2022-11-15T12:34:46;44.22;;;22.88;;
43606;SDS011;29197;44.788;10.366;2022-11-15T12:37:47;45.97;;;23.53;;
43606;SDS011;29197;44.788;10.366;2022-11-15T12:40:38;47.87;;;24.30;;
43606;SDS011;29197;44.788;10.366;2022-11-15T12:43:49;42.53;;;23.57;;
43606;SDS011;29197;44.788;10.366;2022-11-15T12:49:48;45.33;;;23.67;;
43606;SDS011;29197;44.788;10.366;2022-11-15T12:52:39;45.80;;;25.23;;
43606;SDS011;29197;44.788;10.366;2022-11-15T12:56:15;45.17;;;23.60;;
43606;SDS011;29197;44.788;10.366;2022-11-15T12:59:38;40.97;;;22.47;;
43606;SDS011;29197;44.788;10.366;2022-11-15T13:02:37;39.97;;;21.60;;
43606;SDS011;29197;44.788;10.366;2022-11-15T13:05:52;42.23;;;21.40;;
43606;SDS011;29197;44.788;10.366;2022-11-15T13:12:53;42.07;;;20.93;;
43606;SDS011;29197;44.788;10.366;2022-11-15T13:15:55;41.10;;;20.93;;
43606;SDS011;29197;44.788;10.366;2022-11-15T13:18:48;37.83;;;20.57;;
43606;SDS011;29197;44.788;10.366;2022-11-15T13:21:47;42.38;;;21.45;;
43606;SDS011;29197;44.788;10.366;2022-11-15T13:24:54;36.97;;;20.90;;
43606;SDS011;29197;44.788;10.366;2022-11-15T13:27:43;37.57;;;21.83;;
43606;SDS011;29197;44.788;10.366;2022-11-15T13:30:34;41.28;;;22.50;;
43606;SDS011;29197;44.788;10.366;2022-11-15T13:33:26;40.30;;;21.50;;
43606;SDS011;29197;44.788;10.366;2022-11-15T13:36:24;39.83;;;20.80;;
43606;SDS011;29197;44.788;10.366;2022-11-15T13:39:23;34.67;;;19.33;;
43606;SDS011;29197;44.788;10.366;2022-11-15T13:42:14;31.88;;;18.20;;
43606;SDS011;29197;44.788;10.366;2022-11-15T13:45:05;36.28;;;18.63;;
43606;SDS011;29197;44.788;10.366;2022-11-15T13:48:02;37.20;;;19.30;;
43606;SDS011;29197;44.788;10.366;2022-11-15T13:50:54;31.67;;;18.53;;
43606;SDS011;29197;44.788;10.366;2022-11-15T13:53:49;32.40;;;18.90;;
43606;SDS011;29197;44.788;10.366;2022-11-15T13:56:44;35.38;;;19.42;;
43606;SDS011;29197;44.788;10.366;2022-11-15T13:59:36;32.67;;;17.97;;
43606;SDS011;29197;44.788;10.366;2022-11-15T14:02:34;33.30;;;18.47;;
43606;SDS011;29197;44.788;10.366;2022-11-15T14:05:24;29.60;;;17.52;;
43606;SDS011;29197;44.788;10.366;2022-11-15T14:08:22;29.37;;;17.30;;
43606;SDS011;29197;44.788;10.366;2022-11-15T14:11:13;29.35;;;17.60;;
43606;SDS011;29197;44.788;10.366;2022-11-15T14:14:11;33.80;;;17.98;;
43606;SDS011;29197;44.788;10.366;2022-11-15T14:17:02;36.27;;;20.03;;
43606;SDS011;29197;44.788;10.366;2022-11-15T14:19:51;33.30;;;18.77;;
43606;SDS011;29197;44.788;10.366;2022-11-15T14:22:40;34.20;;;18.83;;
43606;SDS011;29197;44.788;10.366;2022-11-15T14:25:51;34.00;;;17.57;;
43606;SDS011;29197;44.788;10.366;2022-11-15T14:28:41;33.97;;;17.50;;
43606;SDS011;29197;44.788;10.366;2022-11-15T14:31:31;33.67;;;18.58;;
43606;SDS011;29197;44.788;10.366;2022-11-15T14:34:20;34.08;;;18.00;;
43606;SDS011;29197;44.788;10.366;2022-11-15T14:37:12;32.70;;;18.27;;
43606;SDS011;29197;44.788;10.366;2022-11-15T14:40:08;33.73;;;18.20;;
43606;SDS011;29197;44.788;10.366;2022-11-15T14:43:03;31.97;;;17.87;;
43606;SDS011;29197;44.788;10.366;2022-11-15T14:45:51;34.47;;;19.13;;
43606;SDS011;29197;44.788;10.366;2022-11-15T14:48:41;32.90;;;18.33;;
43606;SDS011;29197;44.788;10.366;2022-11-15T14:51:30;33.47;;;18.33;;
43606;SDS011;29197;44.788;10.366;2022-11-15T14:54:20;37.07;;;20.60;;
43606;SDS011;29197;44.788;10.366;2022-11-15T14:57:09;37.30;;;20.30;;
43606;SDS011;29197;44.788;10.366;2022-11-15T15:00:00;36.13;;;19.90;;
43606;SDS011;29197;44.788;10.366;2022-11-15T15:02:50;37.60;;;20.37;;
43606;SDS011;29197;44.788;10.366;2022-11-15T15:05:42;34.43;;;19.20;;
43606;SDS011;29197;44.788;10.366;2022-11-15T15:08:32;33.33;;;18.23;;
43606;SDS011;29197;44.788;10.366;2022-11-15T15:11:22;30.67;;;18.07;;
43606;SDS011;29197;44.788;10.366;2022-11-15T15:14:13;32.07;;;18.37;;
43606;SDS011;29197;44.788;10.366;2022-11-15T15:17:04;27.03;;;17.20;;
43606;SDS011;29197;44.788;10.366;2022-11-15T15:19:54;32.03;;;17.43;;
43606;SDS011;29197;44.788;10.366;2022-11-15T15:22:43;30.87;;;18.90;;
43606;SDS011;29197;44.788;10.366;2022-11-15T15:25:33;33.05;;;18.58;;
43606;SDS011;29197;44.788;10.366;2022-11-15T15:28:23;37.80;;;19.87;;
43606;SDS011;29197;44.788;10.366;2022-11-15T15:31:20;35.67;;;19.27;;
43606;SDS011;29197;44.788;10.366;2022-11-15T15:34:10;32.43;;;17.83;;
43606;SDS011;29197;44.788;10.366;2022-11-15T15:37:11;32.53;;;19.17;;
43606;SDS011;29197;44.788;10.366;2022-11-15T15:40:13;33.57;;;19.33;;
43606;SDS011;29197;44.788;10.366;2022-11-15T15:43:04;37.10;;;21.15;;
43606;SDS011;29197;44.788;10.366;2022-11-15T15:45:56;37.17;;;20.07;;
43606;SDS011;29197;44.788;10.366;2022-11-15T15:48:45;49.60;;;25.77;;
43606;SDS011;29197;44.788;10.366;2022-11-15T15:51:36;45.70;;;24.20;;
43606;SDS011;29197;44.788;10.366;2022-11-15T15:54:26;35.27;;;21.10;;
43606;SDS011;29197;44.788;10.366;2022-11-15T15:57:15;40.10;;;23.00;;
43606;SDS011;29197;44.788;10.366;2022-11-15T16:00:05;39.53;;;21.80;;
43606;SDS011;29197;44.788;10.366;2022-11-15T16:02:54;37.57;;;21.77;;
43606;SDS011;29197;44.788;10.366;2022-11-15T16:05:43;43.17;;;23.27;;
43606;SDS011;29197;44.788;10.366;2022-11-15T16:08:34;39.13;;;22.53;;
43606;SDS011;29197;44.788;10.366;2022-11-15T16:11:46;41.07;;;22.63;;
43606;SDS011;29197;44.788;10.366;2022-11-15T16:14:35;54.67;;;29.83;;
43606;SDS011;29197;44.788;10.366;2022-11-15T16:17:25;43.50;;;24.52;;
43606;SDS011;29197;44.788;10.366;2022-11-15T16:20:26;37.63;;;20.90;;
43606;SDS011;29197;44.788;10.366;2022-11-15T16:23:19;41.63;;;23.33;;
43606;SDS011;29197;44.788;10.366;2022-11-15T16:26:14;47.67;;;26.83;;
43606;SDS011;29197;44.788;10.366;2022-11-15T16:29:08;44.13;;;25.40;;
43606;SDS011;29197;44.788;10.366;2022-11-15T16:31:58;35.03;;;19.37;;
43606;SDS011;29197;44.788;10.366;2022-11-15T16:34:47;38.43;;;21.47;;
43606;SDS011;29197;44.788;10.366;2022-11-15T16:37:37;36.20;;;19.07;;
43606;SDS011;29197;44.788;10.366;2022-11-15T16:40:27;34.90;;;18.90;;
43606;SDS011;29197;44.788;10.366;2022-11-15T16:43:19;32.75;;;18.92;;
43606;SDS011;29197;44.788;10.366;2022-11-15T16:46:12;33.97;;;18.93;;
43606;SDS011;29197;44.788;10.366;2022-11-15T16:49:04;35.93;;;20.47;;
43606;SDS011;29197;44.788;10.366;2022-11-15T16:51:55;40.67;;;22.77;;
43606;SDS011;29197;44.788;10.366;2022-11-15T16:54:44;36.53;;;19.73;;
43606;SDS011;29197;44.788;10.366;2022-11-15T16:57:34;40.30;;;21.93;;
43606;SDS011;29197;44.788;10.366;2022-11-15T17:00:25;33.77;;;19.80;;
43606;SDS011;29197;44.788;10.366;2022-11-15T17:03:14;31.77;;;17.67;;
43606;SDS011;29197;44.788;10.366;2022-11-15T17:06:03;33.60;;;18.93;;
43606;SDS011;29197;44.788;10.366;2022-11-15T17:08:53;30.70;;;17.60;;
43606;SDS011;29197;44.788;10.366;2022-11-15T17:11:44;34.45;;;20.20;;
43606;SDS011;29197;44.788;10.366;2022-11-15T17:14:34;38.03;;;21.03;;
43606;SDS011;29197;44.788;10.366;2022-11-15T17:17:26;32.47;;;19.00;;
43606;SDS011;29197;44.788;10.366;2022-11-15T17:20:16;34.80;;;19.53;;
43606;SDS011;29197;44.788;10.366;2022-11-15T17:23:07;34.63;;;19.90;;
43606;SDS011;29197;44.788;10.366;2022-11-15T17:26:00;33.03;;;19.17;;
43606;SDS011;29197;44.788;10.366;2022-11-15T17:29:11;31.30;;;18.33;;
43606;SDS011;29197;44.788;10.366;2022-11-15T17:32:00;33.20;;;18.13;;
43606;SDS011;29197;44.788;10.366;2022-11-15T17:34:51;33.20;;;17.87;;
43606;SDS011;29197;44.788;10.366;2022-11-15T17:37:41;32.13;;;17.17;;
43606;SDS011;29197;44.788;10.366;2022-11-15T17:40:30;31.37;;;17.60;;
43606;SDS011;29197;44.788;10.366;2022-11-15T17:43:20;29.93;;;16.63;;
43606;SDS011;29197;44.788;10.366;2022-11-15T17:46:10;30.00;;;16.80;;
43606;SDS011;29197;44.788;10.366;2022-11-15T17:49:00;28.70;;;16.90;;
43606;SDS011;29197;44.788;10.366;2022-11-15T17:51:51;27.47;;;15.80;;
43606;SDS011;29197;44.788;10.366;2022-11-15T17:54:41;27.47;;;17.03;;
43606;SDS011;29197;44.788;10.366;2022-11-15T17:57:31;30.33;;;16.13;;
43606;SDS011;29197;44.788;10.366;2022-11-15T18:00:20;24.17;;;14.90;;
43606;SDS011;29197;44.788;10.366;2022-11-15T18:03:09;25.53;;;16.17;;
43606;SDS011;29197;44.788;10.366;2022-11-15T18:05:58;27.00;;;15.90;;
43606;SDS011;29197;44.788;10.366;2022-11-15T18:08:49;25.57;;;15.40;;
43606;SDS011;29197;44.788;10.366;2022-11-15T18:11:40;25.37;;;15.50;;
43606;SDS011;29197;44.788;10.366;2022-11-15T18:14:32;29.90;;;15.77;;
43606;SDS011;29197;44.788;10.366;2022-11-15T18:17:22;26.17;;;16.02;;
43606;SDS011;29197;44.788;10.366;2022-11-15T18:20:11;27.87;;;16.67;;
43606;SDS011;29197;44.788;10.366;2022-11-15T18:23:01;30.03;;;17.07;;
43606;SDS011;29197;44.788;10.366;2022-11-15T18:25:52;27.30;;;16.20;;
43606;SDS011;29197;44.788;10.366;2022-11-15T18:28:42;26.80;;;15.83;;
43606;SDS011;29197;44.788;10.366;2022-11-15T18:31:32;26.93;;;16.30;;
43606;SDS011;29197;44.788;10.366;2022-11-15T18:34:21;27.80;;;17.43;;
43606;SDS011;29197;44.788;10.366;2022-11-15T18:37:11;31.10;;;16.60;;
43606;SDS011;29197;44.788;10.366;2022-11-15T18:40:00;29.83;;;17.03;;
43606;SDS011;29197;44.788;10.366;2022-11-15T18:42:52;28.93;;;16.60;;
43606;SDS011;29197;44.788;10.366;2022-11-15T18:45:42;29.27;;;17.13;;
43606;SDS011;29197;44.788;10.366;2022-11-15T18:48:31;31.80;;;18.93;;
43606;SDS011;29197;44.788;10.366;2022-11-15T18:51:23;29.73;;;18.17;;
43606;SDS011;29197;44.788;10.366;2022-11-15T18:54:14;27.83;;;16.97;;
43606;SDS011;29197;44.788;10.366;2022-11-15T18:57:05;30.30;;;18.83;;
43606;SDS011;29197;44.788;10.366;2022-11-15T18:59:55;31.80;;;17.27;;
43606;SDS011;29197;44.788;10.366;2022-11-15T19:02:45;30.37;;;17.23;;
43606;SDS011;29197;44.788;10.366;2022-11-15T19:05:34;32.03;;;19.90;;
43606;SDS011;29197;44.788;10.366;2022-11-15T19:08:23;25.30;;;17.30;;
43606;SDS011;29197;44.788;10.366;2022-11-15T19:11:12;27.37;;;17.37;;
43606;SDS011;29197;44.788;10.366;2022-11-15T19:14:03;26.83;;;16.33;;
43606;SDS011;29197;44.788;10.366;2022-11-15T19:16:55;27.10;;;15.90;;
43606;SDS011;29197;44.788;10.366;2022-11-15T19:19:44;26.77;;;16.40;;
43606;SDS011;29197;44.788;10.366;2022-11-15T19:22:33;23.20;;;14.60;;
43606;SDS011;29197;44.788;10.366;2022-11-15T19:25:21;23.97;;;15.33;;
43606;SDS011;29197;44.788;10.366;2022-11-15T19:28:14;21.40;;;14.87;;
43606;SDS011;29197;44.788;10.366;2022-11-15T19:31:04;23.37;;;15.30;;
43606;SDS011;29197;44.788;10.366;2022-11-15T19:33:57;25.95;;;15.48;;
43606;SDS011;29197;44.788;10.366;2022-11-15T19:36:46;21.90;;;15.13;;
43606;SDS011;29197;44.788;10.366;2022-11-15T19:39:36;23.55;;;14.60;;
43606;SDS011;29197;44.788;10.366;2022-11-15T19:42:26;21.90;;;13.73;;
43606;SDS011;29197;44.788;10.366;2022-11-15T19:45:16;20.17;;;13.63;;
43606;SDS011;29197;44.788;10.366;2022-11-15T19:48:05;23.77;;;15.10;;
43606;SDS011;29197;44.788;10.366;2022-11-15T19:50:58;26.02;;;16.38;;
43606;SDS011;29197;44.788;10.366;2022-11-15T19:53:48;69.43;;;31.15;;
43606;SDS011;29197;44.788;10.366;2022-11-15T19:56:39;43.73;;;23.23;;
43606;SDS011;29197;44.788;10.366;2022-11-15T19:59:28;38.87;;;21.80;;
43606;SDS011;29197;44.788;10.366;2022-11-15T20:02:17;37.00;;;21.80;;
43606;SDS011;29197;44.788;10.366;2022-11-15T20:05:06;26.33;;;16.03;;
43606;SDS011;29197;44.788;10.366;2022-11-15T20:08:05;21.07;;;14.67;;
43606;SDS011;29197;44.788;10.366;2022-11-15T20:10:55;23.23;;;13.80;;
43606;SDS011;29197;44.788;10.366;2022-11-15T20:13:45;27.50;;;17.13;;
43606;SDS011;29197;44.788;10.366;2022-11-15T20:16:35;29.93;;;17.97;;
43606;SDS011;29197;44.788;10.366;2022-11-15T20:19:24;34.90;;;20.80;;
43606;SDS011;29197;44.788;10.366;2022-11-15T20:22:14;33.03;;;20.70;;
43606;SDS011;29197;44.788;10.366;2022-11-15T20:25:05;36.03;;;21.03;;
43606;SDS011;29197;44.788;10.366;2022-11-15T20:27:55;41.30;;;24.00;;
43606;SDS011;29197;44.788;10.366;2022-11-15T20:30:45;28.47;;;17.43;;
43606;SDS011;29197;44.788;10.366;2022-11-15T20:33:35;28.03;;;16.63;;
43606;SDS011;29197;44.788;10.366;2022-11-15T20:36:24;24.20;;;15.33;;
43606;SDS011;29197;44.788;10.366;2022-11-15T20:39:13;25.57;;;15.20;;
43606;SDS011;29197;44.788;10.366;2022-11-15T20:42:04;35.42;;;19.60;;
43606;SDS011;29197;44.788;10.366;2022-11-15T20:44:54;27.27;;;16.23;;
43606;SDS011;29197;44.788;10.366;2022-11-15T20:47:44;24.57;;;15.20;;
43606;SDS011;29197;44.788;10.366;2022-11-15T20:50:33;27.00;;;16.53;;
43606;SDS011;29197;44.788;10.366;2022-11-15T20:53:29;33.30;;;18.63;;
43606;SDS011;29197;44.788;10.366;2022-11-15T20:56:18;28.40;;;17.13;;
43606;SDS011;29197;44.788;10.366;2022-11-15T20:59:10;30.63;;;16.10;;
43606;SDS011;29197;44.788;10.366;2022-11-15T21:01:59;30.03;;;17.07;;
43606;SDS011;29197;44.788;10.366;2022-11-15T21:04:49;31.27;;;18.53;;
43606;SDS011;29197;44.788;10.366;2022-11-15T21:07:39;31.02;;;18.83;;
43606;SDS011;29197;44.788;10.366;2022-11-15T21:10:28;27.43;;;17.33;;
43606;SDS011;29197;44.788;10.366;2022-11-15T21:13:34;34.73;;;19.33;;
43606;SDS011;29197;44.788;10.366;2022-11-15T21:16:25;31.77;;;18.02;;
43606;SDS011;29197;44.788;10.366;2022-11-15T21:19:15;33.57;;;18.97;;
43606;SDS011;29197;44.788;10.366;2022-11-15T21:22:12;28.97;;;17.40;;
43606;SDS011;29197;44.788;10.366;2022-11-15T21:25:01;30.40;;;17.60;;
43606;SDS011;29197;44.788;10.366;2022-11-15T21:27:51;32.10;;;18.07;;
43606;SDS011;29197;44.788;10.366;2022-11-15T21:30:40;34.20;;;19.93;;
43606;SDS011;29197;44.788;10.366;2022-11-15T21:33:30;35.50;;;19.90;;
43606;SDS011;29197;44.788;10.366;2022-11-15T21:36:22;33.23;;;19.73;;
43606;SDS011;29197;44.788;10.366;2022-11-15T21:39:11;39.33;;;20.77;;
43606;SDS011;29197;44.788;10.366;2022-11-15T21:42:01;36.43;;;20.37;;
43606;SDS011;29197;44.788;10.366;2022-11-15T21:44:51;37.97;;;20.17;;
43606;SDS011;29197;44.788;10.366;2022-11-15T21:47:39;36.78;;;20.38;;
43606;SDS011;29197;44.788;10.366;2022-11-15T21:50:34;38.83;;;20.15;;
43606;SDS011;29197;44.788;10.366;2022-11-15T21:53:22;33.83;;;19.47;;
43606;SDS011;29197;44.788;10.366;2022-11-15T21:56:12;39.60;;;22.57;;
43606;SDS011;29197;44.788;10.366;2022-11-15T21:59:01;35.30;;;20.70;;
43606;SDS011;29197;44.788;10.366;2022-11-15T22:01:51;37.30;;;20.60;;
43606;SDS011;29197;44.788;10.366;2022-11-15T22:04:57;38.83;;;22.80;;
43606;SDS011;29197;44.788;10.366;2022-11-15T22:07:48;41.03;;;21.17;;
43606;SDS011;29197;44.788;10.366;2022-11-15T22:10:38;39.03;;;21.60;;
43606;SDS011;29197;44.788;10.366;2022-11-15T22:13:27;42.13;;;22.93;;
43606;SDS011;29197;44.788;10.366;2022-11-15T22:16:16;37.93;;;21.77;;
43606;SDS011;29197;44.788;10.366;2022-11-15T22:19:06;39.27;;;22.37;;
43606;SDS011;29197;44.788;10.366;2022-11-15T22:21:56;39.42;;;22.33;;
43606;SDS011;29197;44.788;10.366;2022-11-15T22:24:47;36.30;;;21.13;;
43606;SDS011;29197;44.788;10.366;2022-11-15T22:27:37;40.47;;;22.45;;
43606;SDS011;29197;44.788;10.366;2022-11-15T22:30:25;38.73;;;21.67;;
43606;SDS011;29197;44.788;10.366;2022-11-15T22:33:15;37.03;;;20.77;;
43606;SDS011;29197;44.788;10.366;2022-11-15T22:36:06;39.87;;;20.93;;
43606;SDS011;29197;44.788;10.366;2022-11-15T22:38:56;39.20;;;22.00;;
43606;SDS011;29197;44.788;10.366;2022-11-15T22:41:46;42.20;;;23.23;;